createdAt,value
2022-11-20T00:05:00.418Z,94.82
2022-11-20T00:10:02.361Z,95.25
2022-11-20T00:15:07.041Z,95.27
2022-11-20T00:20:10.327Z,95.32
2022-11-20T00:25:12.416Z,95.59
2022-11-20T00:30:15.961Z,95.16
2022-11-20T00:35:18.087Z,95.48
2022-11-20T00:40:20.344Z,95.87
2022-11-20T00:45:23.964Z,95.75
2022-11-20T00:50:26.177Z,95.76
2022-11-20T00:55:28.553Z,95.98
2022-11-20T01:00:31.980Z,95.85
2022-11-20T01:05:36.085Z,96.84
2022-11-20T01:10:38.314Z,96.55
2022-11-20T01:15:41.732Z,97.19
2022-11-20T01:20:43.929Z,97.58
2022-11-20T01:25:46.151Z,97.64
2022-11-20T01:30:49.642Z,97.23
2022-11-20T01:35:51.893Z,97.61
2022-11-20T01:40:57.443Z,97.83
2022-11-20T01:46:03.673Z,97.79
2022-11-20T01:51:13.677Z,98.20
2022-11-20T01:56:16.424Z,98.09
2022-11-20T02:01:20.161Z,98.10
2022-11-20T02:06:26.757Z,98.17
2022-11-20T02:11:29.364Z,98.28
2022-11-20T02:16:36.932Z,98.66
2022-11-20T02:21:44.402Z,98.74
2022-11-20T02:26:53.626Z,99.45
2022-11-20T02:31:58.237Z,99.42
2022-11-20T02:37:01.116Z,99.46
2022-11-20T02:42:05.047Z,99.05
2022-11-20T02:47:07.276Z,98.91
2022-11-20T02:52:09.582Z,99.44
2022-11-20T02:57:12.725Z,98.97
2022-11-20T03:02:15.094Z,99.25
2022-11-20T03:07:17.409Z,99.04
2022-11-20T03:12:21.012Z,98.62
2022-11-20T03:17:23.103Z,98.69
2022-11-20T03:22:25.143Z,98.73
2022-11-20T03:27:28.636Z,98.20
2022-11-20T03:32:31.002Z,98.12
2022-11-20T03:37:33.305Z,97.77
2022-11-20T03:42:37.205Z,97.57
2022-11-20T03:47:39.601Z,97.75
2022-11-20T03:52:41.843Z,97.86
2022-11-20T03:57:45.421Z,97.10
2022-11-20T04:02:47.488Z,97.17
2022-11-20T04:07:51.532Z,97.07
2022-11-20T04:12:54.977Z,97.26
2022-11-20T04:17:57.149Z,96.72
2022-11-20T04:22:59.146Z,96.88
2022-11-20T04:28:02.752Z,96.82
2022-11-20T04:33:05.111Z,95.96
2022-11-20T04:38:07.168Z,95.59
2022-11-20T04:43:10.394Z,95.36
2022-11-20T04:48:12.562Z,95.05
2022-11-20T04:53:15.106Z,94.76
2022-11-20T04:58:18.842Z,94.85
2022-11-20T05:03:20.913Z,94.46
2022-11-20T05:08:23.023Z,94.18
2022-11-20T05:13:26.452Z,94.32
2022-11-20T05:18:28.784Z,94.15
2022-11-20T05:23:32.734Z,94.59
2022-11-20T05:28:36.250Z,94.22
2022-11-20T05:33:41.385Z,94.53
2022-11-20T05:38:44.109Z,94.40
2022-11-20T05:43:50.273Z,94.14
2022-11-20T05:48:52.444Z,93.81
2022-11-20T05:53:54.633Z,93.88
2022-11-20T05:58:58.043Z,94.11
2022-11-20T06:04:00.161Z,93.96
2022-11-20T06:09:02.241Z,94.08
2022-11-20T06:14:06.265Z,94.33
2022-11-20T06:19:08.007Z,94.14
2022-11-20T06:24:10.363Z,94.30
2022-11-20T06:29:13.887Z,93.64
2022-11-20T06:34:16.538Z,93.76
2022-11-20T06:39:18.685Z,93.61
2022-11-20T06:44:21.938Z,93.33
2022-11-20T06:49:24.349Z,93.43
2022-11-20T06:54:26.211Z,93.24
2022-11-20T06:59:29.449Z,93.51
2022-11-20T07:04:31.385Z,93.51
2022-11-20T07:09:33.057Z,93.21
2022-11-20T07:14:36.613Z,93.60
2022-11-20T07:19:38.936Z,93.11
2022-11-20T07:24:44.704Z,93.08
2022-11-20T07:29:49.184Z,93.31
2022-11-20T07:34:51.731Z,92.73
2022-11-20T07:39:53.898Z,92.37
2022-11-20T07:44:57.586Z,91.95
2022-11-20T07:49:59.512Z,92.03
2022-11-20T07:55:01.736Z,91.94
2022-11-20T08:00:07.998Z,91.37
2022-11-20T08:05:10.902Z,91.13
2022-11-20T08:10:15.304Z,91.13
2022-11-20T08:15:18.579Z,90.61
2022-11-20T08:20:20.666Z,90.43
2022-11-20T08:25:22.816Z,90.56
2022-11-20T08:30:26.523Z,90.26
2022-11-20T08:35:28.816Z,90.63
2022-11-20T08:40:31.547Z,90.29
2022-11-20T08:45:35.663Z,90.05
2022-11-20T08:50:38.098Z,89.72
2022-11-20T08:55:40.355Z,89.76
2022-11-20T09:00:43.913Z,89.77
2022-11-20T09:05:46.352Z,89.30
2022-11-20T09:10:52.695Z,88.44
2022-11-20T09:15:56.985Z,87.51
2022-11-20T09:20:59.696Z,87.03
2022-11-20T09:26:03.479Z,86.52
2022-11-20T09:31:08.431Z,86.84
2022-11-20T09:36:11.033Z,86.38
2022-11-20T09:41:40.331Z,85.90
2022-11-20T09:46:52.220Z,85.32
2022-11-20T09:51:59.374Z,85.50
2022-11-20T09:57:04.776Z,84.90
2022-11-20T10:02:20.743Z,84.60
2022-11-20T10:07:33.582Z,85.56
2022-11-20T10:12:59.468Z,85.12
2022-11-20T10:18:18.037Z,84.44
2022-11-20T10:23:42.388Z,84.51
2022-11-20T10:29:00.611Z,84.07
2022-11-20T10:34:15.942Z,83.76
2022-11-20T10:39:30.932Z,83.11
2022-11-20T10:44:33.223Z,83.26
2022-11-20T10:49:36.914Z,83.39
2022-11-20T10:54:48.539Z,82.40
2022-11-20T11:00:03.156Z,81.62
2022-11-20T11:05:17.336Z,80.85
2022-11-20T11:10:23.728Z,80.30
2022-11-20T11:15:28.582Z,78.31
2022-11-20T11:20:31.886Z,75.89
2022-11-20T11:25:35.450Z,74.22
2022-11-20T11:30:43.399Z,73.39
2022-11-20T11:35:51.330Z,75.80
2022-11-20T11:40:55.751Z,75.84
2022-11-20T11:45:58.305Z,75.95
2022-11-20T11:51:01.382Z,76.52
2022-11-20T11:56:09.042Z,77.84
2022-11-20T12:01:25.679Z,78.20
2022-11-20T12:06:31.573Z,78.84
2022-11-20T12:11:42.781Z,81.61
2022-11-20T12:16:44.706Z,83.62
2022-11-20T12:22:01.509Z,86.48
2022-11-20T12:27:37.466Z,89.09
2022-11-20T12:33:13.978Z,89.69
2022-11-20T12:38:37.251Z,89.96
2022-11-20T12:43:48.210Z,89.65
2022-11-20T12:49:06.155Z,89.75
2022-11-20T12:54:33.861Z,89.16
2022-11-20T12:59:56.747Z,89.10
2022-11-20T13:05:20.937Z,88.92
2022-11-20T13:10:31.179Z,89.59
2022-11-20T13:15:45.729Z,89.50
2022-11-20T13:20:47.846Z,89.71
2022-11-20T13:25:51.285Z,89.78
2022-11-20T13:30:55.092Z,90.38
2022-11-20T13:35:59.421Z,90.35
2022-11-20T13:41:02.776Z,90.97
2022-11-20T13:46:06.251Z,90.76
2022-11-20T13:51:16.505Z,90.44
2022-11-20T13:56:25.411Z,90.90
2022-11-20T14:01:30.797Z,91.18
2022-11-20T14:06:35.468Z,91.36
2022-11-20T14:11:47.146Z,91.57
2022-11-20T14:16:50.405Z,91.22
2022-11-20T14:21:54.397Z,90.96
2022-11-20T14:26:57.519Z,91.72
2022-11-20T14:32:00.048Z,92.17
2022-11-20T14:37:04.534Z,92.09
2022-11-20T14:42:16.653Z,92.00
2022-11-20T14:47:22.847Z,92.22
2022-11-20T14:52:26.525Z,93.42
2022-11-20T14:57:31.685Z,93.65
2022-11-20T15:02:33.719Z,94.25
2022-11-20T15:07:38.029Z,94.22
2022-11-20T15:12:48.042Z,94.60
2022-11-20T15:17:50.021Z,94.77
2022-11-20T15:22:51.835Z,94.24
2022-11-20T15:27:57.469Z,93.98
2022-11-20T15:32:59.726Z,94.41
2022-11-20T15:38:01.919Z,94.31
2022-11-20T15:43:09.924Z,94.55
2022-11-20T15:48:19.256Z,94.41
2022-11-20T15:53:21.548Z,94.28
2022-11-20T15:58:24.784Z,93.93
2022-11-20T16:03:26.587Z,93.21
2022-11-20T16:08:28.994Z,92.86
2022-11-20T16:13:33.369Z,92.68
2022-11-20T16:18:35.497Z,92.76
2022-11-20T16:23:37.816Z,92.12
2022-11-20T16:28:41.476Z,91.83
2022-11-20T16:33:44.169Z,92.15
2022-11-20T16:38:46.384Z,91.90
2022-11-20T16:43:50.787Z,92.50
2022-11-20T16:48:57.921Z,93.10
2022-11-20T16:54:01.983Z,93.25
2022-11-20T16:59:05.626Z,94.36
2022-11-20T17:04:07.624Z,94.54
2022-11-20T17:09:10.238Z,95.47
2022-11-20T17:14:13.930Z,95.63
2022-11-20T17:19:15.831Z,96.15
2022-11-20T17:24:18.397Z,96.72
2022-11-20T17:29:21.640Z,96.71
2022-11-20T17:34:23.965Z,97.39
2022-11-20T17:39:25.707Z,97.44
2022-11-20T17:44:29.287Z,97.89
2022-11-20T17:49:31.603Z,97.68
2022-11-20T17:54:33.720Z,97.82
2022-11-20T17:59:38.526Z,97.72
2022-11-20T18:04:40.580Z,97.64
2022-11-20T18:09:42.668Z,98.51
2022-11-20T18:14:47.023Z,98.51
2022-11-20T18:20:07.242Z,98.26
2022-11-20T18:25:11.244Z,98.37
2022-11-20T18:30:15.790Z,98.71
2022-11-20T18:35:19.231Z,99.20
2022-11-20T18:40:21.448Z,99.89
2022-11-20T18:45:23.671Z,99.80
2022-11-20T18:50:27.031Z,99.73
2022-11-20T18:55:28.973Z,99.86
2022-11-20T19:00:31.324Z,99.61
2022-11-20T19:05:36.578Z,100.00
2022-11-20T19:10:39.412Z,100.00
2022-11-20T19:15:41.416Z,100.00
2022-11-20T19:20:44.940Z,100.00
2022-11-20T19:25:47.103Z,99.97
2022-11-20T19:30:49.228Z,99.96
2022-11-20T19:35:52.956Z,100.00
2022-11-20T19:40:55.328Z,100.00
2022-11-20T19:45:58.061Z,100.00
2022-11-20T19:51:10.427Z,100.00
2022-11-20T19:56:13.508Z,100.00
2022-11-20T20:01:18.019Z,100.00
2022-11-20T20:06:23.516Z,100.00
2022-11-20T20:11:28.436Z,100.00
2022-11-20T20:16:30.844Z,100.00
2022-11-20T20:21:35.674Z,100.00
2022-11-20T20:26:37.783Z,100.00
2022-11-20T20:31:40.116Z,100.00
2022-11-20T20:36:44.154Z,100.00
2022-11-20T20:41:45.870Z,100.00
2022-11-20T20:46:47.708Z,100.00
2022-11-20T20:51:51.659Z,100.00
2022-11-20T20:56:53.851Z,100.00
2022-11-20T21:01:56.076Z,100.00
2022-11-20T21:06:59.553Z,100.00
2022-11-20T21:12:01.279Z,100.00
2022-11-20T21:17:03.279Z,100.00
2022-11-20T21:22:06.349Z,100.00
2022-11-20T21:27:08.149Z,100.00
2022-11-20T21:32:10.006Z,100.00
2022-11-20T21:37:13.117Z,100.00
2022-11-20T21:42:15.320Z,100.00
2022-11-20T21:47:17.241Z,100.00
2022-11-20T21:52:20.878Z,100.00
2022-11-20T21:57:22.575Z,100.00
2022-11-20T22:02:24.803Z,100.00
2022-11-20T22:07:28.499Z,100.00
2022-11-20T22:12:30.233Z,100.00
2022-11-20T22:17:32.240Z,100.00
2022-11-20T22:22:35.800Z,100.00
2022-11-20T22:27:37.832Z,100.00
2022-11-20T22:32:39.500Z,100.00
2022-11-20T22:37:42.692Z,100.00
2022-11-20T22:42:45.087Z,100.00
2022-11-20T22:47:46.857Z,100.00
2022-11-20T22:52:50.529Z,100.00
2022-11-20T22:57:52.595Z,100.00
2022-11-20T23:02:54.357Z,100.00
2022-11-20T23:07:57.846Z,100.00
2022-11-20T23:12:59.858Z,100.00
2022-11-20T23:18:02.168Z,100.00
2022-11-20T23:23:05.742Z,100.00
2022-11-20T23:28:07.692Z,100.00
2022-11-20T23:33:10.034Z,100.00
2022-11-20T23:38:13.548Z,100.00
2022-11-20T23:43:15.807Z,100.00
2022-11-20T23:48:19.834Z,99.72
2022-11-20T23:53:24.567Z,100.00
2022-11-20T23:58:30.619Z,100.00
